Latest Weather Observations for Swan Hill

IDV60801

Issued at 7:32 pm EST Sunday 20 August 2017 (issued every 30 minutes, with the page automatically refreshed every 10 minutes)

About weather observations | Map of weather stations | Latest weather observations for VIC | Other Formats
Station Details ID: 077094 Name: SWAN HILL AERODROME Lat: -35.38 Lon: 143.54 Height: 71.0 m
Data from the previous 72 hours. | See also: Recent months at Swan Hill
Date/Time
EST
Temp
°C
App
Temp
°C
Dew
Point
°C
Rel
Hum
%
Delta-T
°C
Wind Press
QNH
hPa
Press
MSL
hPa
Rain since
9am
mm
Dir  Spd
km/h
Gust
km/h
Spd
kts
Gust
kts
20/07:30pm 7.3 4.3 2.2 70 2.1 E 7 9 4 5 1019.4 1019.5 0.2
20/07:00pm 7.3 4.4 2.6 72 2.0 E 7 11 4 6 1019.2 1019.3 0.2
20/06:30pm 7.7 4.7 2.2 68 2.3 ESE 7 9 4 5 1019.2 1019.3 0.2
20/06:00pm 8.7 5.7 2.1 63 2.8 NNE 7 9 4 5 1019.5 1019.6 0.2
20/05:30pm 10.1 6.7 2.0 57 3.4 NNE 9 13 5 7 1019.9 1020.0 0.2
20/05:00pm 10.3 6.6 2.2 57 3.4 NE 11 15 6 8 1019.8 1019.9 0.2
20/04:30pm 11.0 6.4 1.5 52 4.0 NNE 15 20 8 11 1019.7 1019.8 0.2
20/04:00pm 12.5 8.3 1.5 47 4.7 NE 13 24 7 13 1020.0 1020.1 0.2
20/03:30pm 12.9 8.7 1.9 47 4.8 NE 13 26 7 14 1020.6 1020.7 0.2
20/03:00pm 12.8 9.0 1.5 46 4.8 NNE 11 19 6 10 1021.2 1021.3 0.2
20/02:30pm 12.0 8.1 1.1 47 4.6 NE 11 17 6 9 1021.4 1021.5 0.2
20/02:00pm 12.1 8.5 0.5 45 4.8 NNE 9 15 5 8 1022.0 1022.1 0.2
20/01:30pm 11.5 8.1 2.0 52 4.1 NNE 9 17 5 9 1022.7 1022.8 0.2
20/01:00pm 12.8 9.9 2.4 49 4.5 NNW 7 13 4 7 1023.3 1023.4 0.2
20/12:30pm 12.2 8.8 1.8 49 4.5 ENE 9 19 5 10 1024.0 1024.1 0.2
20/12:00pm 12.6 9.6 2.2 49 4.5 ENE 7 17 4 9 1024.9 1025.0 0.0
20/11:30am 11.1 8.1 1.9 53 3.9 NE 7 17 4 9 1025.9 1026.0 0.0
20/11:00am 11.6 8.4 3.1 56 3.7 ENE 9 15 5 8 1026.4 1026.5 0.0
20/10:30am 10.5 8.3 3.5 62 3.1 NE 4 9 2 5 1026.8 1026.9 0.0
20/10:00am 9.0 5.9 3.4 68 2.4 ESE 9 13 5 7 1026.8 1026.9 0.0
20/09:30am 7.7 4.9 5.3 85 1.1 ESE 9 11 5 6 1027.0 1027.1 0.0
20/09:00am 5.6 2.7 4.6 93 0.4 SE 9 11 5 6 1027.3 1027.4 0.0
20/08:30am 3.3 0.4 2.4 94 0.4 SE 7 11 4 6 1027.6 1027.7 0.0
20/08:00am 1.3 -2.0 0.4 94 0.3 SE 7 9 4 5 1027.4 1027.5 0.0
20/07:30am -0.3 -3.8 -1.1 94 0.3 SE 7 9 4 5 1027.3 1027.4 0.0
20/07:00am -1.1 -4.7 -2.1 93 0.3 SE 7 7 4 4 1027.5 1027.6 0.0
20/06:30am -0.5 -4.0 -1.3 94 0.3 SE 7 9 4 5 1027.1 1027.2 0.0
20/06:00am -0.2 -3.7 -1.2 93 0.3 SSE 7 9 4 5 1027.0 1027.1 0.0
20/05:30am -0.2 -4.1 -1.2 93 0.3 SSE 9 11 5 6 1027.1 1027.2 0.0
20/05:00am -0.1 -3.9 -1.1 93 0.3 SSE 9 11 5 6 1027.0 1027.1 0.0
20/04:30am 0.0 -3.8 -1.0 93 0.4 S 9 11 5 6 1026.8 1026.9 0.0
20/04:00am -0.1 -3.9 -1.1 93 0.3 SE 9 9 5 5 1026.7 1026.8 0.0
20/03:30am -0.1 -3.4 -1.2 92 0.4 SE 6 7 3 4 1026.7 1026.8 0.0
20/03:00am -0.5 -3.5 -1.6 92 0.4 SE 4 6 2 3 1026.8 1026.9 0.0
20/02:30am 0.6 -2.8 -0.5 92 0.4 SE 7 9 4 5 1026.6 1026.7 0.0
20/02:00am 1.0 -2.1 -0.1 92 0.4 SE 6 7 3 4 1026.8 1026.9 0.0
20/01:30am 1.2 -2.5 0.0 92 0.4 SE 9 9 5 5 1027.0 1027.1 0.0
20/01:00am 0.6 -2.6 -0.8 90 0.5 S 6 7 3 4 1027.1 1027.2 0.0
20/12:30am 1.6 -0.4 0.1 90 0.6 CALM 0 0 0 0 1027.5 1027.6 0.0
20/12:00am 1.8 -1.3 0.0 88 0.7 S 6 7 3 4 1027.6 1027.7 0.0
 
Date/Time
EST
Temp
°C
App
Temp
°C
Dew
Point
°C
Rel
Hum
%
Delta-T
°C
Wind Press
QNH
hPa
Press
MSL
hPa
Rain since
9am
mm
Dir  Spd
km/h
Gust
km/h
Spd
kts
Gust
kts
19/11:30pm 2.5 -1.1 0.7 88 0.7 SSE 9 11 5 6 1027.6 1027.7 0.0
19/11:00pm 3.0 -0.2 0.9 86 0.8 SSW 7 9 4 5 1027.8 1027.9 0.0
19/10:30pm 4.0 0.5 1.4 83 1.0 SSW 9 11 5 6 1027.9 1028.0 0.0
19/10:00pm 3.4 -0.1 1.1 85 0.9 SW 9 11 5 6 1028.0 1028.1 0.0
19/09:30pm 3.8 0.3 1.2 83 1.0 SW 9 11 5 6 1027.9 1028.0 0.0
19/09:00pm 3.7 0.2 1.1 83 1.0 SSW 9 11 5 6 1027.7 1027.8 0.0
19/08:30pm 4.7 1.7 1.7 81 1.2 SSW 7 9 4 5 1027.4 1027.5 0.0
19/08:00pm 5.2 2.3 1.7 78 1.4 SSW 6 7 3 4 1027.1 1027.2 0.0
19/07:30pm 5.8 2.7 1.5 74 1.7 SW 7 9 4 5 1027.1 1027.2 0.0
19/07:00pm 7.2 3.8 2.1 70 2.1 SSW 9 13 5 7 1027.0 1027.1 0.0
19/06:30pm 8.0 4.3 2.3 67 2.4 SSW 11 13 6 7 1026.9 1027.0 0.0
19/06:00pm 9.3 6.0 2.4 62 2.9 S 9 15 5 8 1026.7 1026.8 0.0
19/05:30pm 11.0 6.9 2.1 54 3.8 SSW 13 19 7 10 1026.9 1027.0 0.0
19/05:00pm 11.8 7.3 2.0 51 4.2 SSW 15 26 8 14 1026.5 1026.6 0.0
19/04:30pm 11.2 7.0 1.7 52 4.0 SSW 13 19 7 10 1026.4 1026.5 0.0
19/04:00pm 12.5 7.6 2.1 49 4.5 SSW 17 24 9 13 1026.5 1026.6 0.0
19/03:30pm 12.4 6.8 1.1 46 4.8 SW 20 30 11 16 1026.5 1026.6 0.0
19/03:00pm 12.4 7.4 1.1 46 4.8 SSW 17 26 9 14 1026.5 1026.6 0.0
19/02:30pm 11.9 6.5 1.5 49 4.4 SSW 19 28 10 15 1026.7 1026.8 0.0
19/02:00pm 12.5 7.0 2.1 49 4.5 SSW 20 30 11 16 1026.8 1026.9 0.0
19/01:30pm 11.4 6.4 1.6 51 4.2 SSW 17 28 9 15 1026.8 1026.9 0.0
19/01:00pm 10.9 5.4 0.6 49 4.2 SSW 19 28 10 15 1027.1 1027.2 0.0
19/12:30pm 11.6 6.2 2.4 53 4.0 SSW 20 33 11 18 1027.4 1027.5 0.0
19/12:00pm 11.3 5.8 2.1 53 3.9 SSW 20 32 11 17 1027.6 1027.7 0.0
19/11:30am 10.8 5.6 2.6 57 3.5 SSW 19 33 10 18 1027.8 1027.9 0.0
19/11:00am 10.2 5.1 3.3 62 3.0 SSW 19 30 10 16 1027.9 1028.0 0.0
19/10:30am 9.4 4.2 3.6 67 2.5 SSW 20 30 11 16 1027.9 1028.0 0.0
19/10:00am 8.6 3.7 4.2 74 1.9 SW 19 30 10 16 1027.7 1027.8 0.0
19/09:30am 7.2 2.7 4.3 82 1.3 SW 17 24 9 13 1027.8 1027.9 0.0
19/09:00am 5.6 1.1 4.2 91 0.6 SSW 17 22 9 12 1027.6 1027.7 0.6
19/08:30am 4.0 -1.1 3.1 94 0.4 SW 19 24 10 13 1027.2 1027.3 0.6
19/08:00am 3.0 -1.9 2.3 95 0.3 SW 17 22 9 12 1026.7 1026.8 0.6
19/07:30am 1.8 -3.2 1.1 95 0.3 SW 17 20 9 11 1026.2 1026.3 0.6
19/07:00am 1.3 -3.1 0.4 94 0.3 WSW 13 17 7 9 1025.6 1025.7 0.6
19/06:30am 1.2 -3.2 0.3 94 0.3 WSW 13 15 7 8 1025.3 1025.4 0.6
19/06:00am 1.3 -3.1 0.4 94 0.3 WSW 13 17 7 9 1024.9 1025.0 0.6
19/05:30am 1.0 -3.4 0.1 94 0.3 WSW 13 15 7 8 1024.5 1024.6 0.6
19/05:00am 1.3 -3.1 0.4 94 0.3 WSW 13 15 7 8 1024.2 1024.3 0.6
19/04:30am 1.4 -3.0 0.5 94 0.3 WSW 13 15 7 8 1023.8 1023.9 0.6
19/04:00am 1.7 -2.6 0.8 94 0.3 WSW 13 17 7 9 1023.8 1023.9 0.6
19/03:30am 2.0 -2.7 1.1 94 0.3 WSW 15 17 8 9 1023.6 1023.7 0.6
19/03:00am 1.6 -2.8 0.6 93 0.4 WSW 13 17 7 9 1023.6 1023.7 0.6
19/02:30am 1.4 -3.4 0.4 93 0.4 W 15 17 8 9 1023.5 1023.6 0.6
19/02:00am 1.2 -2.9 0.0 92 0.4 W 11 11 6 6 1023.5 1023.6 0.6
19/01:30am 1.9 -2.1 0.6 91 0.5 W 11 13 6 7 1023.4 1023.5 0.6
19/01:00am 2.9 -0.5 1.6 91 0.5 WSW 9 13 5 7 1023.4 1023.5 0.6
19/12:30am 3.5 -1.0 2.2 91 0.5 WSW 15 17 8 9 1023.3 1023.4 0.6
19/12:00am 4.0 -0.1 2.5 90 0.6 WSW 13 19 7 10 1023.0 1023.1 0.6
 
Date/Time
EST
Temp
°C
App
Temp
°C
Dew
Point
°C
Rel
Hum
%
Delta-T
°C
Wind Press
QNH
hPa
Press
MSL
hPa
Rain since
9am
mm
Dir  Spd
km/h
Gust
km/h
Spd
kts
Gust
kts
18/11:30pm 4.4 -0.7 2.9 90 0.6 WSW 19 24 10 13 1023.2 1023.3 0.6
18/11:00pm 4.4 -0.9 2.9 90 0.6 W 20 24 11 13 1023.1 1023.2 0.6
18/10:30pm 4.6 -1.1 2.9 89 0.7 W 22 28 12 15 1022.8 1022.9 0.6
18/10:00pm 4.5 -0.6 2.8 89 0.7 W 19 22 10 12 1022.8 1022.9 0.4
18/09:30pm 4.6 -0.1 2.9 89 0.7 WSW 17 22 9 12 1022.6 1022.7 0.4
18/09:00pm 3.9 0.2 2.3 89 0.6 W 11 17 6 9 1022.3 1022.4 0.4
18/08:30pm 4.3 0.6 2.3 87 0.8 WSW 11 13 6 7 1022.0 1022.1 0.4
18/08:00pm 5.4 1.1 3.1 85 0.9 WSW 15 19 8 10 1021.8 1021.9 0.4
18/07:30pm 6.4 1.7 3.2 80 1.3 WSW 17 20 9 11 1021.2 1021.3 0.4
18/07:00pm 7.2 2.0 3.4 77 1.6 WSW 20 26 11 14 1020.9 1021.0 0.4
18/06:30pm 8.0 2.0 3.5 73 1.9 WSW 24 35 13 19 1020.5 1020.6 0.4
18/06:00pm 8.6 2.7 3.8 72 2.1 WSW 24 33 13 18 1020.1 1020.2 0.4
18/05:41pm 9.8 2.3 3.5 65 2.8 WSW 32 72 17 39 1019.8 1019.9 0.4
18/05:40pm 10.0 3.4 4.2 67 2.6 WSW 28 52 15 28 1019.8 1019.9 0.4
18/05:30pm 10.2 4.0 4.1 66 2.7 WSW 26 33 14 18 1019.3 1019.4 0.4
18/05:00pm 11.1 3.0 3.2 58 3.5 WSW 35 48 19 26 1018.7 1018.7 0.4
18/04:30pm 12.0 2.3 2.7 53 4.1 WSW 43 63 23 34 1018.4 1018.4 0.4
18/04:08pm 12.3 3.5 3.8 56 3.8 WSW 39 57 21 31 1018.0 1018.1 0.4
18/04:00pm 12.2 3.0 3.7 56 3.8 WSW 41 56 22 30 1017.8 1017.9 0.4
18/03:30pm 11.8 2.3 4.1 59 3.5 WSW 43 56 23 30 1017.3 1017.4 0.4
18/03:00pm 11.3 5.6 6.8 74 2.1 SW 26 39 14 21 1017.3 1017.4 0.4
18/02:37pm 10.4 4.1 5.6 72 2.2 SSW 28 52 15 28 1017.3 1017.4 0.2
18/02:30pm 11.0 4.2 4.9 66 2.8 SW 30 43 16 23 1016.9 1017.0 0.0
18/02:13pm 13.2 4.8 3.6 52 4.3 WSW 37 56 20 30 1016.5 1016.6 0.0
18/02:00pm 13.1 4.8 4.3 55 4.0 WSW 37 46 20 25 1016.5 1016.6 0.0
18/01:56pm 12.9 4.3 4.8 58 3.7 WSW 39 57 21 31 1016.5 1016.6 0.0
18/01:30pm 13.3 3.2 3.7 52 4.3 WSW 46 61 25 33 1016.3 1016.4 0.0
18/01:17pm 12.7 3.6 3.9 55 4.0 WSW 41 59 22 32 1016.2 1016.3 0.0
18/01:00pm 11.8 2.7 4.1 59 3.5 WSW 41 54 22 29 1016.3 1016.4 0.0
18/12:41pm 12.0 2.7 5.2 63 3.1 WSW 43 61 23 33 1016.5 1016.6 0.0
18/12:30pm 11.8 1.7 3.8 58 3.6 WSW 46 61 25 33 1016.5 1016.6 0.0
18/12:24pm 12.6 3.2 4.3 57 3.8 WSW 43 61 23 33 1016.6 1016.7 0.0
18/12:00pm 12.6 2.4 5.1 60 3.5 WSW 48 63 26 34 1016.8 1016.9 0.0
18/11:34am 11.7 2.3 4.7 62 3.2 WSW 43 61 23 33 1016.8 1016.9 0.0
18/11:30am 11.9 1.9 4.4 60 3.4 WSW 46 61 25 33 1016.8 1016.9 0.0
18/11:00am 11.3 1.9 5.2 66 2.8 WSW 44 54 24 29 1016.8 1016.9 0.0
18/10:30am 10.8 1.9 5.1 68 2.6 W 41 54 22 29 1016.6 1016.7 0.0
18/10:00am 10.3 1.9 5.7 73 2.1 W 39 50 21 27 1016.4 1016.5 0.0
18/09:30am 9.5 2.2 5.5 76 1.8 W 33 44 18 24 1016.1 1016.2 0.0
18/09:00am 8.5 0.4 5.3 80 1.4 W 37 48 20 26 1015.6 1015.7 4.2
18/08:30am 7.4 -1.1 5.0 85 1.1 W 39 48 21 26 1015.2 1015.3 4.2
18/08:00am 7.0 -0.3 4.5 84 1.1 W 32 43 17 23 1014.7 1014.8 4.2
18/07:30am 6.3 -1.1 4.0 85 1.0 W 32 44 17 24 1014.2 1014.3 4.2
18/07:00am 6.2 -1.2 3.9 85 1.0 W 32 41 17 22 1013.6 1013.7 4.2
18/06:30am 6.3 -1.3 3.8 84 1.1 W 33 44 18 24 1013.2 1013.3 4.2
18/06:00am 6.5 -0.9 3.8 83 1.2 WNW 32 44 17 24 1012.8 1012.9 4.2
18/05:30am 6.6 -1.0 3.9 83 1.2 WNW 33 43 18 23 1012.5 1012.6 4.2
18/05:00am 6.9 -1.9 3.7 80 1.4 W 39 54 21 29 1011.9 1012.0 4.2
18/04:30am 7.0 -1.4 3.8 80 1.4 WNW 37 48 20 26 1011.6 1011.7 4.2
18/04:00am 6.8 -1.2 3.9 82 1.2 W 35 52 19 28 1011.3 1011.4 4.2
18/03:54am 6.9 -0.7 4.0 82 1.2 W 33 52 18 28 1011.1 1011.2 4.2
18/03:30am 6.7 -0.7 4.2 84 1.1 WNW 32 39 17 21 1011.2 1011.3 4.2
18/03:00am 6.6 -0.4 4.3 85 1.0 WNW 30 39 16 21 1011.0 1011.1 4.2
18/02:30am 6.7 0.5 4.4 85 1.0 WNW 26 33 14 18 1011.0 1011.1 4.2
18/02:00am 6.4 0.6 4.4 87 0.9 WNW 24 32 13 17 1011.0 1011.1 4.2
18/01:30am 6.6 0.4 4.4 86 1.0 WNW 26 32 14 17 1011.0 1011.1 4.2
18/01:00am 7.1 0.6 4.6 84 1.1 WNW 28 35 15 19 1011.0 1011.1 4.2
18/12:30am 7.5 0.2 4.3 80 1.4 WNW 32 43 17 23 1010.6 1010.7 4.2
18/12:00am 7.8 1.2 4.4 79 1.5 WNW 28 37 15 20 1010.3 1010.4 4.2
 
Date/Time
EST
Temp
°C
App
Temp
°C
Dew
Point
°C
Rel
Hum
%
Delta-T
°C
Wind Press
QNH
hPa
Press
MSL
hPa
Rain since
9am
mm
Dir  Spd
km/h
Gust
km/h
Spd
kts
Gust
kts
17/11:30pm 7.5 2.2 5.1 85 1.1 WNW 22 28 12 15 1010.3 1010.4 4.2
17/11:00pm 7.4 2.1 5.0 85 1.1 NW 22 30 12 16 1010.2 1010.3 4.2
17/10:30pm 7.8 1.8 5.3 84 1.1 WNW 26 33 14 18 1010.0 1010.1 4.2
17/10:00pm 8.2 1.5 5.5 83 1.2 WNW 30 41 16 22 1010.1 1010.2 4.2
17/09:30pm 8.1 2.2 5.6 84 1.1 WNW 26 32 14 17 1010.2 1010.3 4.2
17/09:00pm 8.1 2.9 5.4 83 1.2 WNW 22 26 12 14 1010.0 1010.1 4.2
17/08:30pm 8.7 3.1 5.4 80 1.5 WNW 24 30 13 16 1009.5 1009.6 4.2
17/08:00pm 9.3 3.1 6.0 80 1.5 WNW 28 35 15 19 1009.2 1009.3 4.2

Other Formats:

Comma delimited format used in spreadsheet applications
http://www.bom.gov.au/fwo/IDV60801/IDV60801.94843.axf

JavaScript Object Notation format (JSON) in row-major order
http://www.bom.gov.au/fwo/IDV60801/IDV60801.94843.json